sensor_id;sensor_type;location;lat;lon;timestamp;P1;durP1;ratioP1;P2;durP2;ratioP2
37917;SDS011;23749;51.410;21.130;2022-11-20T00:00:40;85.23;;;37.07;;
37917;SDS011;23749;51.410;21.130;2022-11-20T00:03:51;84.73;;;35.57;;
37917;SDS011;23749;51.410;21.130;2022-11-20T00:07:02;82.77;;;38.03;;
37917;SDS011;23749;51.410;21.130;2022-11-20T00:10:13;94.10;;;43.33;;
37917;SDS011;23749;51.410;21.130;2022-11-20T00:13:24;81.83;;;37.17;;
37917;SDS011;23749;51.410;21.130;2022-11-20T00:16:34;90.97;;;40.70;;
37917;SDS011;23749;51.410;21.130;2022-11-20T00:19:44;80.10;;;37.23;;
37917;SDS011;23749;51.410;21.130;2022-11-20T00:22:55;85.03;;;37.17;;
37917;SDS011;23749;51.410;21.130;2022-11-20T00:26:06;75.60;;;35.07;;
37917;SDS011;23749;51.410;21.130;2022-11-20T00:29:16;93.40;;;39.43;;
37917;SDS011;23749;51.410;21.130;2022-11-20T00:32:27;87.03;;;37.07;;
37917;SDS011;23749;51.410;21.130;2022-11-20T00:35:39;81.20;;;36.20;;
37917;SDS011;23749;51.410;21.130;2022-11-20T00:38:53;78.23;;;36.13;;
37917;SDS011;23749;51.410;21.130;2022-11-20T00:42:03;80.93;;;35.07;;
37917;SDS011;23749;51.410;21.130;2022-11-20T00:45:13;72.00;;;31.13;;
37917;SDS011;23749;51.410;21.130;2022-11-20T00:48:25;70.63;;;33.80;;
37917;SDS011;23749;51.410;21.130;2022-11-20T00:51:35;79.10;;;34.57;;
37917;SDS011;23749;51.410;21.130;2022-11-20T00:54:46;74.50;;;34.60;;
37917;SDS011;23749;51.410;21.130;2022-11-20T00:57:57;78.43;;;35.07;;
37917;SDS011;23749;51.410;21.130;2022-11-20T01:01:14;81.27;;;34.93;;
37917;SDS011;23749;51.410;21.130;2022-11-20T01:04:25;78.17;;;34.30;;
37917;SDS011;23749;51.410;21.130;2022-11-20T01:07:35;87.07;;;34.50;;
37917;SDS011;23749;51.410;21.130;2022-11-20T01:10:46;82.40;;;34.57;;
37917;SDS011;23749;51.410;21.130;2022-11-20T01:13:56;84.57;;;35.53;;
37917;SDS011;23749;51.410;21.130;2022-11-20T01:17:07;89.63;;;37.77;;
37917;SDS011;23749;51.410;21.130;2022-11-20T01:20:19;103.27;;;38.60;;
37917;SDS011;23749;51.410;21.130;2022-11-20T01:23:30;85.97;;;38.13;;
37917;SDS011;23749;51.410;21.130;2022-11-20T01:26:43;87.63;;;37.10;;
37917;SDS011;23749;51.410;21.130;2022-11-20T01:29:54;111.47;;;44.77;;
37917;SDS011;23749;51.410;21.130;2022-11-20T01:33:05;126.27;;;46.23;;
37917;SDS011;23749;51.410;21.130;2022-11-20T01:36:16;99.33;;;41.03;;
37917;SDS011;23749;51.410;21.130;2022-11-20T01:39:26;85.50;;;36.43;;
37917;SDS011;23749;51.410;21.130;2022-11-20T01:42:37;97.43;;;41.93;;
37917;SDS011;23749;51.410;21.130;2022-11-20T01:46:16;75.30;;;34.83;;
37917;SDS011;23749;51.410;21.130;2022-11-20T01:49:28;84.97;;;37.57;;
37917;SDS011;23749;51.410;21.130;2022-11-20T01:52:49;71.23;;;34.00;;
37917;SDS011;23749;51.410;21.130;2022-11-20T01:56:03;69.43;;;33.80;;
37917;SDS011;23749;51.410;21.130;2022-11-20T01:59:15;76.63;;;35.53;;
37917;SDS011;23749;51.410;21.130;2022-11-20T02:02:28;68.37;;;32.37;;
37917;SDS011;23749;51.410;21.130;2022-11-20T02:05:44;82.20;;;42.87;;
37917;SDS011;23749;51.410;21.130;2022-11-20T02:08:55;80.03;;;35.40;;
37917;SDS011;23749;51.410;21.130;2022-11-20T02:12:06;65.37;;;30.30;;
37917;SDS011;23749;51.410;21.130;2022-11-20T02:15:36;65.47;;;30.00;;
37917;SDS011;23749;51.410;21.130;2022-11-20T02:18:47;62.50;;;29.70;;
37917;SDS011;23749;51.410;21.130;2022-11-20T02:25:19;60.70;;;28.93;;
37917;SDS011;23749;51.410;21.130;2022-11-20T02:28:30;56.47;;;26.60;;
37917;SDS011;23749;51.410;21.130;2022-11-20T02:31:42;53.57;;;27.13;;
37917;SDS011;23749;51.410;21.130;2022-11-20T02:34:53;63.83;;;28.47;;
37917;SDS011;23749;51.410;21.130;2022-11-20T02:38:04;57.70;;;28.30;;
37917;SDS011;23749;51.410;21.130;2022-11-20T02:41:14;62.47;;;28.07;;
37917;SDS011;23749;51.410;21.130;2022-11-20T02:44:24;51.77;;;26.63;;
37917;SDS011;23749;51.410;21.130;2022-11-20T02:47:35;60.20;;;27.17;;
37917;SDS011;23749;51.410;21.130;2022-11-20T02:50:46;57.20;;;27.23;;
37917;SDS011;23749;51.410;21.130;2022-11-20T02:53:56;50.30;;;25.63;;
37917;SDS011;23749;51.410;21.130;2022-11-20T02:57:06;49.37;;;24.50;;
37917;SDS011;23749;51.410;21.130;2022-11-20T03:00:17;57.47;;;28.03;;
37917;SDS011;23749;51.410;21.130;2022-11-20T03:03:27;55.20;;;26.77;;
37917;SDS011;23749;51.410;21.130;2022-11-20T03:06:37;51.87;;;25.67;;
37917;SDS011;23749;51.410;21.130;2022-11-20T03:09:48;64.27;;;29.70;;
37917;SDS011;23749;51.410;21.130;2022-11-20T03:12:58;58.57;;;28.37;;
37917;SDS011;23749;51.410;21.130;2022-11-20T03:16:16;61.93;;;27.47;;
37917;SDS011;23749;51.410;21.130;2022-11-20T03:19:28;59.10;;;28.03;;
37917;SDS011;23749;51.410;21.130;2022-11-20T03:22:38;54.30;;;25.60;;
37917;SDS011;23749;51.410;21.130;2022-11-20T03:25:49;56.80;;;26.97;;
37917;SDS011;23749;51.410;21.130;2022-11-20T03:29:01;49.30;;;25.57;;
37917;SDS011;23749;51.410;21.130;2022-11-20T03:32:14;61.07;;;30.77;;
37917;SDS011;23749;51.410;21.130;2022-11-20T03:35:24;55.53;;;27.73;;
37917;SDS011;23749;51.410;21.130;2022-11-20T03:38:34;55.27;;;28.07;;
37917;SDS011;23749;51.410;21.130;2022-11-20T03:41:45;65.40;;;30.60;;
37917;SDS011;23749;51.410;21.130;2022-11-20T03:44:55;69.00;;;31.57;;
37917;SDS011;23749;51.410;21.130;2022-11-20T03:48:05;62.57;;;31.07;;
37917;SDS011;23749;51.410;21.130;2022-11-20T03:51:19;66.00;;;31.90;;
37917;SDS011;23749;51.410;21.130;2022-11-20T03:54:29;67.23;;;30.53;;
37917;SDS011;23749;51.410;21.130;2022-11-20T03:57:39;63.17;;;29.53;;
37917;SDS011;23749;51.410;21.130;2022-11-20T04:00:50;61.93;;;28.43;;
37917;SDS011;23749;51.410;21.130;2022-11-20T04:04:00;64.20;;;29.10;;
37917;SDS011;23749;51.410;21.130;2022-11-20T04:07:11;54.40;;;26.20;;
37917;SDS011;23749;51.410;21.130;2022-11-20T04:10:22;58.60;;;27.73;;
37917;SDS011;23749;51.410;21.130;2022-11-20T04:13:33;52.53;;;25.03;;
37917;SDS011;23749;51.410;21.130;2022-11-20T04:16:43;61.67;;;26.03;;
37917;SDS011;23749;51.410;21.130;2022-11-20T04:19:55;61.43;;;26.67;;
37917;SDS011;23749;51.410;21.130;2022-11-20T04:23:05;54.27;;;27.03;;
37917;SDS011;23749;51.410;21.130;2022-11-20T04:26:15;58.10;;;27.57;;
37917;SDS011;23749;51.410;21.130;2022-11-20T04:29:26;61.23;;;28.10;;
37917;SDS011;23749;51.410;21.130;2022-11-20T04:32:38;75.90;;;32.97;;
37917;SDS011;23749;51.410;21.130;2022-11-20T04:35:48;82.47;;;35.83;;
37917;SDS011;23749;51.410;21.130;2022-11-20T04:39:01;87.30;;;36.80;;
37917;SDS011;23749;51.410;21.130;2022-11-20T04:42:12;76.23;;;32.57;;
37917;SDS011;23749;51.410;21.130;2022-11-20T04:45:38;67.30;;;30.93;;
37917;SDS011;23749;51.410;21.130;2022-11-20T04:48:48;69.27;;;28.67;;
37917;SDS011;23749;51.410;21.130;2022-11-20T04:52:00;52.27;;;25.73;;
37917;SDS011;23749;51.410;21.130;2022-11-20T04:55:11;53.77;;;25.47;;
37917;SDS011;23749;51.410;21.130;2022-11-20T04:58:22;54.70;;;25.80;;
37917;SDS011;23749;51.410;21.130;2022-11-20T05:01:32;51.20;;;24.67;;
37917;SDS011;23749;51.410;21.130;2022-11-20T05:04:43;46.73;;;24.07;;
37917;SDS011;23749;51.410;21.130;2022-11-20T05:07:55;52.17;;;25.23;;
37917;SDS011;23749;51.410;21.130;2022-11-20T05:11:09;62.77;;;29.93;;
37917;SDS011;23749;51.410;21.130;2022-11-20T05:14:21;72.37;;;31.50;;
37917;SDS011;23749;51.410;21.130;2022-11-20T05:17:31;69.50;;;29.50;;
37917;SDS011;23749;51.410;21.130;2022-11-20T05:20:42;67.40;;;30.33;;
37917;SDS011;23749;51.410;21.130;2022-11-20T05:23:52;81.43;;;35.27;;
37917;SDS011;23749;51.410;21.130;2022-11-20T05:27:02;81.53;;;35.33;;
37917;SDS011;23749;51.410;21.130;2022-11-20T05:30:13;65.10;;;29.97;;
37917;SDS011;23749;51.410;21.130;2022-11-20T05:33:23;68.63;;;29.50;;
37917;SDS011;23749;51.410;21.130;2022-11-20T05:36:33;66.87;;;29.50;;
37917;SDS011;23749;51.410;21.130;2022-11-20T05:39:44;63.37;;;28.60;;
37917;SDS011;23749;51.410;21.130;2022-11-20T05:42:55;53.87;;;26.53;;
37917;SDS011;23749;51.410;21.130;2022-11-20T05:46:06;52.20;;;25.60;;
37917;SDS011;23749;51.410;21.130;2022-11-20T05:49:17;61.07;;;28.33;;
37917;SDS011;23749;51.410;21.130;2022-11-20T05:52:30;77.93;;;33.00;;
37917;SDS011;23749;51.410;21.130;2022-11-20T05:55:40;62.33;;;28.27;;
37917;SDS011;23749;51.410;21.130;2022-11-20T05:58:52;53.30;;;24.93;;
37917;SDS011;23749;51.410;21.130;2022-11-20T06:02:02;51.90;;;26.13;;
37917;SDS011;23749;51.410;21.130;2022-11-20T06:05:13;54.23;;;26.90;;
37917;SDS011;23749;51.410;21.130;2022-11-20T06:08:24;65.00;;;28.60;;
37917;SDS011;23749;51.410;21.130;2022-11-20T06:11:34;78.47;;;33.17;;
37917;SDS011;23749;51.410;21.130;2022-11-20T06:14:45;69.80;;;31.57;;
37917;SDS011;23749;51.410;21.130;2022-11-20T06:17:56;72.73;;;34.80;;
37917;SDS011;23749;51.410;21.130;2022-11-20T06:21:09;70.00;;;34.47;;
37917;SDS011;23749;51.410;21.130;2022-11-20T06:24:20;70.43;;;33.20;;
37917;SDS011;23749;51.410;21.130;2022-11-20T06:27:30;75.37;;;35.23;;
37917;SDS011;23749;51.410;21.130;2022-11-20T06:30:44;73.83;;;35.33;;
37917;SDS011;23749;51.410;21.130;2022-11-20T06:33:54;77.17;;;35.93;;
37917;SDS011;23749;51.410;21.130;2022-11-20T06:37:05;60.67;;;31.33;;
37917;SDS011;23749;51.410;21.130;2022-11-20T06:40:15;74.03;;;33.40;;
37917;SDS011;23749;51.410;21.130;2022-11-20T06:43:28;78.83;;;35.90;;
37917;SDS011;23749;51.410;21.130;2022-11-20T06:46:38;68.73;;;33.57;;
37917;SDS011;23749;51.410;21.130;2022-11-20T06:49:48;68.00;;;34.20;;
37917;SDS011;23749;51.410;21.130;2022-11-20T06:53:02;59.50;;;31.30;;
37917;SDS011;23749;51.410;21.130;2022-11-20T06:56:15;67.77;;;32.77;;
37917;SDS011;23749;51.410;21.130;2022-11-20T06:59:27;97.93;;;37.93;;
37917;SDS011;23749;51.410;21.130;2022-11-20T07:02:38;92.63;;;37.97;;
37917;SDS011;23749;51.410;21.130;2022-11-20T07:05:51;70.10;;;33.43;;
37917;SDS011;23749;51.410;21.130;2022-11-20T07:09:01;80.07;;;36.57;;
37917;SDS011;23749;51.410;21.130;2022-11-20T07:12:13;71.90;;;35.77;;
37917;SDS011;23749;51.410;21.130;2022-11-20T07:15:25;70.00;;;34.40;;
37917;SDS011;23749;51.410;21.130;2022-11-20T07:18:35;74.57;;;36.93;;
37917;SDS011;23749;51.410;21.130;2022-11-20T07:21:46;63.20;;;33.27;;
37917;SDS011;23749;51.410;21.130;2022-11-20T07:24:57;62.30;;;32.73;;
37917;SDS011;23749;51.410;21.130;2022-11-20T07:28:07;60.50;;;31.67;;
37917;SDS011;23749;51.410;21.130;2022-11-20T07:31:20;53.97;;;28.90;;
37917;SDS011;23749;51.410;21.130;2022-11-20T07:34:30;53.13;;;28.03;;
37917;SDS011;23749;51.410;21.130;2022-11-20T07:37:41;45.97;;;26.53;;
37917;SDS011;23749;51.410;21.130;2022-11-20T07:40:55;43.07;;;25.03;;
37917;SDS011;23749;51.410;21.130;2022-11-20T07:44:07;45.83;;;25.47;;
37917;SDS011;23749;51.410;21.130;2022-11-20T07:47:17;43.87;;;25.90;;
37917;SDS011;23749;51.410;21.130;2022-11-20T07:50:28;38.67;;;21.07;;
37917;SDS011;23749;51.410;21.130;2022-11-20T07:53:39;42.20;;;24.33;;
37917;SDS011;23749;51.410;21.130;2022-11-20T07:56:52;46.67;;;25.87;;
37917;SDS011;23749;51.410;21.130;2022-11-20T08:00:03;45.93;;;26.80;;
37917;SDS011;23749;51.410;21.130;2022-11-20T08:03:13;46.60;;;25.50;;
37917;SDS011;23749;51.410;21.130;2022-11-20T08:06:23;51.60;;;28.57;;
37917;SDS011;23749;51.410;21.130;2022-11-20T08:09:34;42.57;;;27.13;;
37917;SDS011;23749;51.410;21.130;2022-11-20T08:12:49;49.80;;;28.70;;
37917;SDS011;23749;51.410;21.130;2022-11-20T08:16:18;44.10;;;26.13;;
37917;SDS011;23749;51.410;21.130;2022-11-20T08:19:29;42.73;;;26.00;;
37917;SDS011;23749;51.410;21.130;2022-11-20T08:22:39;42.67;;;25.43;;
37917;SDS011;23749;51.410;21.130;2022-11-20T08:25:50;40.73;;;25.40;;
37917;SDS011;23749;51.410;21.130;2022-11-20T08:29:01;47.77;;;28.73;;
37917;SDS011;23749;51.410;21.130;2022-11-20T08:32:11;44.67;;;27.50;;
37917;SDS011;23749;51.410;21.130;2022-11-20T08:35:21;48.47;;;28.50;;
37917;SDS011;23749;51.410;21.130;2022-11-20T08:38:32;44.13;;;25.67;;
37917;SDS011;23749;51.410;21.130;2022-11-20T08:41:45;45.97;;;28.13;;
37917;SDS011;23749;51.410;21.130;2022-11-20T08:44:56;41.70;;;26.07;;
37917;SDS011;23749;51.410;21.130;2022-11-20T08:48:07;46.77;;;28.67;;
37917;SDS011;23749;51.410;21.130;2022-11-20T08:51:17;45.20;;;27.97;;
37917;SDS011;23749;51.410;21.130;2022-11-20T08:54:28;71.33;;;35.03;;
37917;SDS011;23749;51.410;21.130;2022-11-20T08:57:38;45.40;;;27.03;;
37917;SDS011;23749;51.410;21.130;2022-11-20T09:00:49;43.10;;;26.50;;
37917;SDS011;23749;51.410;21.130;2022-11-20T09:03:59;42.60;;;24.57;;
37917;SDS011;23749;51.410;21.130;2022-11-20T09:07:09;48.63;;;26.77;;
37917;SDS011;23749;51.410;21.130;2022-11-20T09:10:20;44.13;;;26.33;;
37917;SDS011;23749;51.410;21.130;2022-11-20T09:13:30;40.40;;;25.53;;
37917;SDS011;23749;51.410;21.130;2022-11-20T09:16:41;45.57;;;25.13;;
37917;SDS011;23749;51.410;21.130;2022-11-20T09:19:54;44.03;;;26.80;;
37917;SDS011;23749;51.410;21.130;2022-11-20T09:23:05;42.50;;;25.43;;
37917;SDS011;23749;51.410;21.130;2022-11-20T09:26:15;43.90;;;24.73;;
37917;SDS011;23749;51.410;21.130;2022-11-20T09:29:25;42.83;;;26.80;;
37917;SDS011;23749;51.410;21.130;2022-11-20T09:32:38;52.10;;;29.63;;
37917;SDS011;23749;51.410;21.130;2022-11-20T09:35:48;42.33;;;24.80;;
37917;SDS011;23749;51.410;21.130;2022-11-20T09:38:59;48.13;;;27.00;;
37917;SDS011;23749;51.410;21.130;2022-11-20T09:45:24;51.73;;;29.63;;
37917;SDS011;23749;51.410;21.130;2022-11-20T09:48:40;46.77;;;26.13;;
37917;SDS011;23749;51.410;21.130;2022-11-20T09:55:21;44.00;;;24.97;;
37917;SDS011;23749;51.410;21.130;2022-11-20T09:58:43;52.20;;;27.40;;
37917;SDS011;23749;51.410;21.130;2022-11-20T10:01:55;59.27;;;30.27;;
37917;SDS011;23749;51.410;21.130;2022-11-20T10:05:18;43.87;;;23.80;;
37917;SDS011;23749;51.410;21.130;2022-11-20T10:08:35;68.47;;;31.73;;
37917;SDS011;23749;51.410;21.130;2022-11-20T10:18:36;48.83;;;27.27;;
37917;SDS011;23749;51.410;21.130;2022-11-20T10:31:47;51.43;;;25.63;;
37917;SDS011;23749;51.410;21.130;2022-11-20T10:38:12;40.30;;;22.97;;
37917;SDS011;23749;51.410;21.130;2022-11-20T10:41:26;39.80;;;22.13;;
37917;SDS011;23749;51.410;21.130;2022-11-20T10:44:37;42.70;;;22.37;;
37917;SDS011;23749;51.410;21.130;2022-11-20T10:48:25;42.17;;;21.53;;
37917;SDS011;23749;51.410;21.130;2022-11-20T10:51:37;62.23;;;31.93;;
37917;SDS011;23749;51.410;21.130;2022-11-20T10:58:04;46.03;;;23.80;;
37917;SDS011;23749;51.410;21.130;2022-11-20T11:01:19;46.33;;;26.83;;
37917;SDS011;23749;51.410;21.130;2022-11-20T11:04:40;41.47;;;22.90;;
37917;SDS011;23749;51.410;21.130;2022-11-20T11:07:54;45.03;;;24.50;;
37917;SDS011;23749;51.410;21.130;2022-11-20T11:11:15;40.93;;;22.70;;
37917;SDS011;23749;51.410;21.130;2022-11-20T11:14:28;36.83;;;21.20;;
37917;SDS011;23749;51.410;21.130;2022-11-20T11:17:45;39.83;;;22.17;;
37917;SDS011;23749;51.410;21.130;2022-11-20T11:20:57;39.07;;;22.70;;
37917;SDS011;23749;51.410;21.130;2022-11-20T11:24:15;39.53;;;21.63;;
37917;SDS011;23749;51.410;21.130;2022-11-20T11:27:29;47.87;;;23.93;;
37917;SDS011;23749;51.410;21.130;2022-11-20T11:30:43;40.20;;;22.83;;
37917;SDS011;23749;51.410;21.130;2022-11-20T11:37:19;39.80;;;23.63;;
37917;SDS011;23749;51.410;21.130;2022-11-20T11:40:31;46.20;;;23.47;;
37917;SDS011;23749;51.410;21.130;2022-11-20T11:43:49;44.80;;;25.87;;
37917;SDS011;23749;51.410;21.130;2022-11-20T11:50:32;75.07;;;34.40;;
37917;SDS011;23749;51.410;21.130;2022-11-20T11:53:43;59.00;;;31.07;;
37917;SDS011;23749;51.410;21.130;2022-11-20T11:56:53;59.30;;;31.67;;
37917;SDS011;23749;51.410;21.130;2022-11-20T12:00:06;53.20;;;29.77;;
37917;SDS011;23749;51.410;21.130;2022-11-20T12:03:35;70.77;;;34.67;;
37917;SDS011;23749;51.410;21.130;2022-11-20T12:07:00;90.57;;;38.67;;
37917;SDS011;23749;51.410;21.130;2022-11-20T12:10:17;79.80;;;36.33;;
37917;SDS011;23749;51.410;21.130;2022-11-20T12:16:52;80.10;;;36.90;;
37917;SDS011;23749;51.410;21.130;2022-11-20T12:20:13;71.80;;;32.47;;
37917;SDS011;23749;51.410;21.130;2022-11-20T12:23:28;65.00;;;29.53;;
37917;SDS011;23749;51.410;21.130;2022-11-20T12:26:44;59.73;;;29.23;;
37917;SDS011;23749;51.410;21.130;2022-11-20T12:30:29;46.60;;;25.37;;
37917;SDS011;23749;51.410;21.130;2022-11-20T12:37:10;43.00;;;22.53;;
37917;SDS011;23749;51.410;21.130;2022-11-20T12:47:50;50.93;;;24.93;;
37917;SDS011;23749;51.410;21.130;2022-11-20T12:51:11;51.03;;;27.43;;
37917;SDS011;23749;51.410;21.130;2022-11-20T12:57:44;46.83;;;24.97;;
37917;SDS011;23749;51.410;21.130;2022-11-20T13:04:21;43.10;;;23.00;;
37917;SDS011;23749;51.410;21.130;2022-11-20T13:07:34;43.93;;;23.83;;
37917;SDS011;23749;51.410;21.130;2022-11-20T13:17:11;74.03;;;33.27;;
37917;SDS011;23749;51.410;21.130;2022-11-20T13:20:27;59.93;;;28.57;;
37917;SDS011;23749;51.410;21.130;2022-11-20T13:23:37;54.23;;;28.23;;
37917;SDS011;23749;51.410;21.130;2022-11-20T13:26:59;44.20;;;23.63;;
37917;SDS011;23749;51.410;21.130;2022-11-20T13:30:13;55.07;;;28.37;;
37917;SDS011;23749;51.410;21.130;2022-11-20T13:36:48;47.20;;;25.27;;
37917;SDS011;23749;51.410;21.130;2022-11-20T13:43:20;61.87;;;29.83;;
37917;SDS011;23749;51.410;21.130;2022-11-20T13:46:37;76.10;;;38.47;;
37917;SDS011;23749;51.410;21.130;2022-11-20T13:49:48;69.07;;;33.97;;
37917;SDS011;23749;51.410;21.130;2022-11-20T13:53:02;51.43;;;27.53;;
37917;SDS011;23749;51.410;21.130;2022-11-20T14:03:17;88.43;;;40.37;;
37917;SDS011;23749;51.410;21.130;2022-11-20T14:06:38;52.40;;;26.63;;
37917;SDS011;23749;51.410;21.130;2022-11-20T14:09:54;49.77;;;23.10;;
37917;SDS011;23749;51.410;21.130;2022-11-20T14:13:18;52.50;;;27.33;;
37917;SDS011;23749;51.410;21.130;2022-11-20T14:16:30;50.80;;;26.67;;
37917;SDS011;23749;51.410;21.130;2022-11-20T14:19:44;54.30;;;28.73;;
37917;SDS011;23749;51.410;21.130;2022-11-20T14:22:55;53.77;;;28.67;;
37917;SDS011;23749;51.410;21.130;2022-11-20T14:26:06;45.53;;;24.53;;
37917;SDS011;23749;51.410;21.130;2022-11-20T14:29:17;63.03;;;30.30;;
37917;SDS011;23749;51.410;21.130;2022-11-20T14:32:29;49.23;;;24.47;;
37917;SDS011;23749;51.410;21.130;2022-11-20T14:35:45;58.03;;;29.67;;
37917;SDS011;23749;51.410;21.130;2022-11-20T14:38:56;46.37;;;23.83;;
37917;SDS011;23749;51.410;21.130;2022-11-20T14:42:16;43.77;;;22.80;;
37917;SDS011;23749;51.410;21.130;2022-11-20T14:45:31;56.50;;;29.33;;
37917;SDS011;23749;51.410;21.130;2022-11-20T14:52:03;65.10;;;31.73;;
37917;SDS011;23749;51.410;21.130;2022-11-20T14:55:30;86.30;;;40.70;;
37917;SDS011;23749;51.410;21.130;2022-11-20T14:58:42;86.00;;;38.30;;
37917;SDS011;23749;51.410;21.130;2022-11-20T15:05:06;55.70;;;26.73;;
37917;SDS011;23749;51.410;21.130;2022-11-20T15:08:17;84.97;;;38.63;;
37917;SDS011;23749;51.410;21.130;2022-11-20T15:11:32;81.77;;;38.13;;
37917;SDS011;23749;51.410;21.130;2022-11-20T15:14:44;88.80;;;39.07;;
37917;SDS011;23749;51.410;21.130;2022-11-20T15:17:54;85.93;;;39.90;;
37917;SDS011;23749;51.410;21.130;2022-11-20T15:21:09;86.23;;;37.33;;
37917;SDS011;23749;51.410;21.130;2022-11-20T15:24:20;122.47;;;55.50;;
37917;SDS011;23749;51.410;21.130;2022-11-20T15:27:30;68.73;;;33.97;;
37917;SDS011;23749;51.410;21.130;2022-11-20T15:30:42;87.83;;;41.90;;
37917;SDS011;23749;51.410;21.130;2022-11-20T15:33:52;109.27;;;50.10;;
37917;SDS011;23749;51.410;21.130;2022-11-20T15:37:02;105.80;;;47.43;;
37917;SDS011;23749;51.410;21.130;2022-11-20T15:40:13;83.37;;;38.23;;
37917;SDS011;23749;51.410;21.130;2022-11-20T15:43:23;87.63;;;40.93;;
37917;SDS011;23749;51.410;21.130;2022-11-20T15:46:35;90.77;;;39.43;;
37917;SDS011;23749;51.410;21.130;2022-11-20T15:49:50;84.33;;;39.87;;
37917;SDS011;23749;51.410;21.130;2022-11-20T15:53:01;97.53;;;41.17;;
37917;SDS011;23749;51.410;21.130;2022-11-20T15:56:12;80.80;;;36.67;;
37917;SDS011;23749;51.410;21.130;2022-11-20T15:59:22;149.50;;;54.73;;
37917;SDS011;23749;51.410;21.130;2022-11-20T16:02:34;246.20;;;99.63;;
37917;SDS011;23749;51.410;21.130;2022-11-20T16:05:44;136.63;;;60.63;;
37917;SDS011;23749;51.410;21.130;2022-11-20T16:08:55;81.60;;;40.83;;
37917;SDS011;23749;51.410;21.130;2022-11-20T16:12:05;89.47;;;41.67;;
37917;SDS011;23749;51.410;21.130;2022-11-20T16:15:17;89.50;;;41.87;;
37917;SDS011;23749;51.410;21.130;2022-11-20T16:18:46;122.13;;;60.03;;
37917;SDS011;23749;51.410;21.130;2022-11-20T16:21:57;86.00;;;42.10;;
37917;SDS011;23749;51.410;21.130;2022-11-20T16:25:11;112.50;;;50.00;;
37917;SDS011;23749;51.410;21.130;2022-11-20T16:28:21;73.30;;;37.47;;
37917;SDS011;23749;51.410;21.130;2022-11-20T16:31:31;92.97;;;41.27;;
37917;SDS011;23749;51.410;21.130;2022-11-20T16:34:42;101.67;;;46.90;;
37917;SDS011;23749;51.410;21.130;2022-11-20T16:37:52;95.83;;;42.40;;
37917;SDS011;23749;51.410;21.130;2022-11-20T16:41:03;138.70;;;59.90;;
37917;SDS011;23749;51.410;21.130;2022-11-20T16:44:13;160.87;;;60.50;;
37917;SDS011;23749;51.410;21.130;2022-11-20T16:47:24;124.27;;;54.37;;
37917;SDS011;23749;51.410;21.130;2022-11-20T16:50:34;153.07;;;60.00;;
37917;SDS011;23749;51.410;21.130;2022-11-20T16:53:44;97.80;;;44.70;;
37917;SDS011;23749;51.410;21.130;2022-11-20T16:56:56;127.37;;;52.50;;
37917;SDS011;23749;51.410;21.130;2022-11-20T17:00:07;204.73;;;69.80;;
37917;SDS011;23749;51.410;21.130;2022-11-20T17:03:19;140.60;;;55.27;;
37917;SDS011;23749;51.410;21.130;2022-11-20T17:06:40;267.23;;;86.03;;
37917;SDS011;23749;51.410;21.130;2022-11-20T17:09:54;608.63;;;171.53;;
37917;SDS011;23749;51.410;21.130;2022-11-20T17:13:08;340.50;;;101.53;;
37917;SDS011;23749;51.410;21.130;2022-11-20T17:16:19;240.97;;;88.87;;
37917;SDS011;23749;51.410;21.130;2022-11-20T17:19:30;174.00;;;66.93;;
37917;SDS011;23749;51.410;21.130;2022-11-20T17:22:42;301.00;;;113.17;;
37917;SDS011;23749;51.410;21.130;2022-11-20T17:25:52;118.77;;;53.77;;
37917;SDS011;23749;51.410;21.130;2022-11-20T17:29:05;106.10;;;47.57;;
37917;SDS011;23749;51.410;21.130;2022-11-20T17:32:15;102.83;;;47.60;;
37917;SDS011;23749;51.410;21.130;2022-11-20T17:35:27;106.67;;;44.77;;
37917;SDS011;23749;51.410;21.130;2022-11-20T17:38:37;96.07;;;41.17;;
37917;SDS011;23749;51.410;21.130;2022-11-20T17:41:49;102.57;;;43.93;;
37917;SDS011;23749;51.410;21.130;2022-11-20T17:45:19;115.63;;;48.57;;
37917;SDS011;23749;51.410;21.130;2022-11-20T17:48:32;118.60;;;49.00;;
37917;SDS011;23749;51.410;21.130;2022-11-20T17:51:42;112.57;;;45.97;;
37917;SDS011;23749;51.410;21.130;2022-11-20T17:54:53;93.87;;;42.83;;
37917;SDS011;23749;51.410;21.130;2022-11-20T17:58:05;92.17;;;41.43;;
37917;SDS011;23749;51.410;21.130;2022-11-20T18:01:19;95.73;;;43.57;;
37917;SDS011;23749;51.410;21.130;2022-11-20T18:04:29;98.90;;;42.10;;
37917;SDS011;23749;51.410;21.130;2022-11-20T18:07:40;98.70;;;44.47;;
37917;SDS011;23749;51.410;21.130;2022-11-20T18:10:50;115.47;;;51.27;;
37917;SDS011;23749;51.410;21.130;2022-11-20T18:14:02;134.53;;;59.20;;
37917;SDS011;23749;51.410;21.130;2022-11-20T18:17:31;211.60;;;85.67;;
37917;SDS011;23749;51.410;21.130;2022-11-20T18:20:42;251.63;;;102.33;;
37917;SDS011;23749;51.410;21.130;2022-11-20T18:23:53;216.90;;;97.20;;
37917;SDS011;23749;51.410;21.130;2022-11-20T18:27:07;147.63;;;65.77;;
37917;SDS011;23749;51.410;21.130;2022-11-20T18:30:19;169.47;;;69.17;;
37917;SDS011;23749;51.410;21.130;2022-11-20T18:33:31;126.70;;;59.77;;
37917;SDS011;23749;51.410;21.130;2022-11-20T18:36:42;116.63;;;57.97;;
37917;SDS011;23749;51.410;21.130;2022-11-20T18:39:52;95.63;;;43.03;;
37917;SDS011;23749;51.410;21.130;2022-11-20T18:43:02;74.00;;;35.10;;
37917;SDS011;23749;51.410;21.130;2022-11-20T18:46:31;70.93;;;34.47;;
37917;SDS011;23749;51.410;21.130;2022-11-20T18:49:46;67.77;;;34.27;;
37917;SDS011;23749;51.410;21.130;2022-11-20T18:52:59;83.43;;;37.37;;
37917;SDS011;23749;51.410;21.130;2022-11-20T18:56:13;75.27;;;33.83;;
37917;SDS011;23749;51.410;21.130;2022-11-20T18:59:23;61.57;;;31.97;;
37917;SDS011;23749;51.410;21.130;2022-11-20T19:02:34;73.80;;;36.43;;
37917;SDS011;23749;51.410;21.130;2022-11-20T19:05:44;77.47;;;37.50;;
37917;SDS011;23749;51.410;21.130;2022-11-20T19:08:55;73.50;;;35.87;;
37917;SDS011;23749;51.410;21.130;2022-11-20T19:12:06;84.67;;;36.17;;
37917;SDS011;23749;51.410;21.130;2022-11-20T19:15:17;69.23;;;32.37;;
37917;SDS011;23749;51.410;21.130;2022-11-20T19:18:29;83.53;;;36.10;;
37917;SDS011;23749;51.410;21.130;2022-11-20T19:21:39;71.73;;;34.37;;
37917;SDS011;23749;51.410;21.130;2022-11-20T19:24:51;95.30;;;43.00;;
37917;SDS011;23749;51.410;21.130;2022-11-20T19:28:03;78.37;;;35.17;;
37917;SDS011;23749;51.410;21.130;2022-11-20T19:31:15;72.87;;;35.93;;
37917;SDS011;23749;51.410;21.130;2022-11-20T19:34:25;91.87;;;40.00;;
37917;SDS011;23749;51.410;21.130;2022-11-20T19:37:35;82.33;;;36.47;;
37917;SDS011;23749;51.410;21.130;2022-11-20T19:40:46;92.50;;;39.47;;
37917;SDS011;23749;51.410;21.130;2022-11-20T19:44:01;122.50;;;47.20;;
37917;SDS011;23749;51.410;21.130;2022-11-20T19:47:11;91.53;;;41.67;;
37917;SDS011;23749;51.410;21.130;2022-11-20T19:50:23;98.90;;;46.10;;
37917;SDS011;23749;51.410;21.130;2022-11-20T19:53:35;100.43;;;46.17;;